Time;durP1;ratioP1;P1;durP2;ratioP2;P2;SDS_P1;SDS_P2;PMS_P1;PMS_P2;Temp;Humidity;BMP_temperature;BMP_pressure;BME280_temperature;BME280_humidity;BME280_pressure;Samples;Min_cycle;Max_cycle;Signal;HPM_P1;HPM_P2
2023/04/05 00:00:39;;;;;;;11.98;4.07;;;1.40;99.90;;;;;;4753625;30;20126;-81
2023/04/05 00:03:05;;;;;;;6.45;3.45;;;1.40;99.90;;;;;;4755702;30;20056;-81
2023/04/05 00:05:33;;;;;;;6.72;4.20;;;1.40;99.90;;;;;;4755606;30;20495;-81
2023/04/05 00:08:03;;;;;;;10.05;4.22;;;1.30;99.90;;;;;;4752705;30;20047;-81
2023/04/05 00:10:31;;;;;;;9.93;4.50;;;1.20;99.90;;;;;;4769208;30;20571;-81
2023/04/05 00:12:57;;;;;;;6.50;4.15;;;1.30;99.90;;;;;;4753732;30;20587;-81
2023/04/05 00:15:23;;;;;;;6.80;3.83;;;1.30;99.90;;;;;;4767258;30;20071;-80
2023/04/05 00:17:49;;;;;;;6.68;4.00;;;1.30;99.90;;;;;;4769944;30;20087;-81
2023/04/05 00:20:15;;;;;;;7.57;4.25;;;1.30;99.90;;;;;;4769230;30;20172;-81
2023/04/05 00:22:43;;;;;;;7.72;4.10;;;1.30;99.90;;;;;;4754502;30;20079;-81
2023/04/05 00:25:09;;;;;;;8.38;4.13;;;1.20;99.90;;;;;;4753520;30;20039;-81
2023/04/05 00:27:34;;;;;;;7.18;3.83;;;1.20;99.90;;;;;;4770897;30;20089;-81
2023/04/05 00:30:00;;;;;;;7.50;4.28;;;1.10;99.90;;;;;;4757412;30;20127;-81
2023/04/05 00:32:26;;;;;;;8.20;4.97;;;1.10;99.90;;;;;;4772703;30;20059;-82
2023/04/05 00:34:51;;;;;;;6.32;3.40;;;1.20;99.90;;;;;;4758189;30;20123;-81
2023/04/05 00:37:17;;;;;;;6.43;3.90;;;1.40;99.90;;;;;;4757120;30;20129;-81
2023/04/05 00:39:43;;;;;;;8.07;4.07;;;1.10;99.90;;;;;;4756261;30;20051;-80
2023/04/05 00:42:08;;;;;;;6.03;4.15;;;1.10;99.90;;;;;;4770452;30;20591;-80
2023/04/05 00:44:34;;;;;;;7.22;4.82;;;1.00;99.90;;;;;;4753189;30;20059;-80
2023/04/05 00:47:02;;;;;;;9.77;4.40;;;1.00;99.90;;;;;;4754541;30;20054;-80
2023/04/05 00:49:30;;;;;;;8.85;3.92;;;1.00;99.90;;;;;;4755898;30;20063;-80
2023/04/05 00:51:56;;;;;;;10.05;4.93;;;1.00;99.90;;;;;;4756238;30;20158;-80
2023/04/05 00:54:24;;;;;;;7.38;4.63;;;1.20;99.90;;;;;;4768305;30;20067;-80
2023/04/05 00:56:53;;;;;;;7.03;3.78;;;1.00;99.90;;;;;;4755623;30;20128;-80
2023/04/05 00:59:18;;;;;;;7.45;4.22;;;1.00;99.90;;;;;;4756288;30;20055;-80
2023/04/05 01:01:53;;;;;;;7.25;4.63;;;1.00;99.90;;;;;;4753620;30;20051;-80
2023/04/05 01:04:25;;;;;;;7.23;4.00;;;0.90;99.90;;;;;;4770559;30;20056;-80
2023/04/05 01:07:08;;;;;;;6.95;4.15;;;0.90;99.90;;;;;;4770310;30;20058;-80
2023/04/05 01:09:44;;;;;;;6.53;3.97;;;0.80;99.90;;;;;;4754909;30;20060;-80
2023/04/05 01:12:12;;;;;;;;;;;0.80;99.90;;;;;;4753570;30;20048;-80
2023/04/05 01:14:46;;;;;;;6.65;4.00;;;0.80;99.90;;;;;;4754637;30;20002;-80
2023/04/05 01:17:12;;;;;;;7.93;3.70;;;0.70;99.90;;;;;;4755143;30;20043;-80
2023/04/05 01:19:40;;;;;;;8.45;4.43;;;0.70;99.90;;;;;;4754072;30;20043;-80
2023/04/05 01:22:30;;;;;;;7.07;3.83;;;0.70;99.90;;;;;;4770096;30;20058;-80
2023/04/05 01:25:24;;;;;;;8.98;4.43;;;0.60;99.90;;;;;;4755140;30;20052;-80
2023/04/05 01:28:18;;;;;;;6.00;3.97;;;0.60;99.90;;;;;;4755543;30;20406;-80
2023/04/05 01:30:52;;;;;;;8.75;4.82;;;0.60;99.90;;;;;;4756167;30;20059;-80
2023/04/05 01:33:43;;;;;;;9.68;4.55;;;0.60;99.90;;;;;;4754738;30;20134;-80
2023/04/05 01:36:18;;;;;;;7.90;5.30;;;0.60;99.90;;;;;;4753632;30;20105;-80
2023/04/05 01:38:47;;;;;;;15.07;4.97;;;0.60;99.90;;;;;;4769622;30;20047;-80
2023/04/05 01:41:13;;;;;;;8.25;4.78;;;0.60;99.90;;;;;;4754632;30;20062;-80
2023/04/05 01:43:38;;;;;;;8.50;4.75;;;0.60;99.90;;;;;;4752672;30;20515;-80
2023/04/05 01:46:04;;;;;;;8.90;5.28;;;0.60;99.90;;;;;;4754860;30;20081;-80
2023/04/05 01:48:30;;;;;;;8.77;4.82;;;1.30;99.90;;;;;;4753805;30;20048;-80
2023/04/05 01:50:55;;;;;;;11.98;4.75;;;0.60;99.90;;;;;;4754320;30;20044;-80
2023/04/05 01:53:21;;;;;;;7.70;4.80;;;0.70;99.90;;;;;;4769915;30;20079;-80
2023/04/05 01:55:46;;;;;;;10.63;4.65;;;0.60;99.90;;;;;;4770128;30;20082;-80
2023/04/05 01:58:12;;;;;;;9.90;4.68;;;0.60;99.90;;;;;;4769541;30;20043;-80
2023/04/05 02:00:37;;;;;;;6.97;3.80;;;0.60;99.90;;;;;;4741552;30;20043;-80
2023/04/05 02:03:03;;;;;;;10.48;4.35;;;0.50;99.90;;;;;;4753810;30;20052;-80
2023/04/05 02:05:28;;;;;;;9.80;4.60;;;0.50;99.90;;;;;;4769142;30;20052;-80
2023/04/05 02:07:54;;;;;;;7.13;4.55;;;0.40;99.90;;;;;;4752129;30;20088;-80
2023/04/05 02:10:20;;;;;;;7.13;3.97;;;0.40;99.90;;;;;;4768455;30;20043;-80
2023/04/05 02:12:46;;;;;;;9.40;4.07;;;0.40;99.90;;;;;;4754928;30;20644;-80
2023/04/05 02:15:12;;;;;;;7.95;4.68;;;0.30;99.90;;;;;;4753786;30;20127;-80
2023/04/05 02:17:44;;;;;;;12.27;5.22;;;0.20;99.90;;;;;;4754153;30;20134;-79
2023/04/05 02:20:13;;;;;;;9.98;4.35;;;0.30;99.90;;;;;;4769108;30;20048;-80
2023/04/05 02:22:39;;;;;;;12.27;5.50;;;0.20;99.90;;;;;;4764131;30;20052;-80
2023/04/05 02:25:07;;;;;;;9.93;5.30;;;0.20;99.90;;;;;;4769228;30;20437;-80
2023/04/05 02:27:33;;;;;;;8.13;5.22;;;0.20;99.90;;;;;;4753324;30;20428;-80
2023/04/05 02:29:59;;;;;;;10.60;5.20;;;0.10;99.90;;;;;;4753244;30;20112;-80
2023/04/05 02:32:24;;;;;;;7.15;4.82;;;0.10;99.90;;;;;;4752806;30;20126;-80
2023/04/05 02:34:51;;;;;;;8.38;4.97;;;0.10;99.90;;;;;;4753733;30;20931;-80
2023/04/05 02:37:18;;;;;;;9.48;5.35;;;0.10;99.90;;;;;;4755148;30;20046;-80
2023/04/05 02:39:43;;;;;;;6.60;4.60;;;0.10;99.90;;;;;;4753480;30;20051;-80
2023/04/05 02:42:09;;;;;;;8.05;5.40;;;0.10;99.90;;;;;;4767284;30;20047;-80
2023/04/05 02:44:35;;;;;;;8.80;4.88;;;0.20;99.90;;;;;;4754035;30;20047;-80
2023/04/05 02:47:00;;;;;;;7.68;5.35;;;0.00;99.90;;;;;;4768133;30;20047;-80
2023/04/05 02:49:26;;;;;;;11.18;5.68;;;0.10;99.90;;;;;;4769536;30;20044;-80
2023/04/05 02:51:51;;;;;;;9.48;5.45;;;0.20;99.90;;;;;;4768058;30;20056;-80
2023/04/05 02:54:17;;;;;;;7.72;4.85;;;0.00;99.90;;;;;;4768364;30;20100;-80
2023/04/05 02:56:42;;;;;;;8.73;4.82;;;0.00;99.90;;;;;;4753005;30;20518;-80
2023/04/05 02:59:08;;;;;;;7.78;5.45;;;0.00;99.90;;;;;;4752801;30;20048;-80
2023/04/05 03:01:35;;;;;;;10.02;5.68;;;-0.10;99.90;;;;;;4739875;30;20040;-80
2023/04/05 03:04:01;;;;;;;7.00;5.13;;;-0.10;99.90;;;;;;4752210;30;20088;-81
2023/04/05 03:06:27;;;;;;;13.68;5.50;;;-0.10;99.90;;;;;;4755316;30;20059;-80
2023/04/05 03:08:52;;;;;;;8.80;5.68;;;-0.10;99.90;;;;;;4753604;30;20051;-80
2023/04/05 03:11:18;;;;;;;9.30;5.88;;;0.00;99.90;;;;;;4767997;30;20054;-80
2023/04/05 03:13:44;;;;;;;7.97;5.78;;;0.00;99.90;;;;;;4752624;30;20058;-80
2023/04/05 03:16:09;;;;;;;10.52;6.38;;;0.00;99.90;;;;;;4753743;30;20044;-80
2023/04/05 03:18:35;;;;;;;9.45;5.75;;;0.00;99.90;;;;;;4752842;30;20044;-80
2023/04/05 03:21:03;;;;;;;12.02;6.68;;;0.00;99.90;;;;;;4751048;30;20066;-80
2023/04/05 03:23:30;;;;;;;9.85;5.53;;;0.00;99.90;;;;;;4753677;30;20047;-81
2023/04/05 03:26:02;;;;;;;10.48;6.75;;;0.00;99.90;;;;;;4752531;30;20058;-80
2023/04/05 03:28:31;;;;;;;8.50;5.28;;;0.00;99.90;;;;;;4737589;30;20051;-80
2023/04/05 03:30:57;;;;;;;10.85;6.05;;;0.00;99.90;;;;;;4764750;30;20083;-80
2023/04/05 03:33:22;;;;;;;12.18;5.88;;;0.00;99.90;;;;;;4748492;30;20040;-80
2023/04/05 03:35:48;;;;;;;11.68;6.30;;;0.10;99.90;;;;;;4749728;30;20043;-80
2023/04/05 03:38:13;;;;;;;12.75;7.00;;;-0.10;99.90;;;;;;4755050;30;20046;-80
2023/04/05 03:40:39;;;;;;;10.90;7.20;;;-0.20;99.90;;;;;;4756336;30;20143;-80
2023/04/05 03:43:05;;;;;;;12.98;7.05;;;-0.10;99.90;;;;;;4752243;30;20108;-80
2023/04/05 03:45:30;;;;;;;10.07;6.40;;;-0.10;99.90;;;;;;4770208;30;20677;-80
2023/04/05 03:47:57;;;;;;;12.18;6.78;;;0.10;99.90;;;;;;4750887;30;20044;-80
2023/04/05 03:50:23;;;;;;;12.52;7.07;;;-0.30;99.90;;;;;;4751255;30;20054;-80
2023/04/05 03:52:48;;;;;;;10.55;6.65;;;-0.20;99.90;;;;;;4753100;30;20126;-80
2023/04/05 03:55:15;;;;;;;12.60;7.22;;;-0.30;99.90;;;;;;4750932;30;20051;-80
2023/04/05 03:57:41;;;;;;;11.13;6.15;;;-0.30;99.90;;;;;;4766031;30;20043;-80
2023/04/05 04:00:13;;;;;;;11.63;6.25;;;-0.30;99.90;;;;;;4748158;30;20083;-80
2023/04/05 04:02:42;;;;;;;14.95;7.47;;;-0.30;99.90;;;;;;4766369;30;20051;-80
2023/04/05 04:05:07;;;;;;;15.27;7.88;;;0.00;99.90;;;;;;4767077;30;20063;-80
2023/04/05 04:07:33;;;;;;;17.70;8.15;;;-0.30;99.90;;;;;;4751416;30;20040;-80
2023/04/05 04:09:58;;;;;;;16.70;8.38;;;-0.10;99.90;;;;;;4752364;30;20046;-80
2023/04/05 04:12:24;;;;;;;13.98;8.10;;;-0.20;99.90;;;;;;4749497;30;20523;-80
2023/04/05 04:14:49;;;;;;;14.13;8.15;;;-0.20;99.90;;;;;;4765926;30;20047;-80
2023/04/05 04:17:30;;;;;;;18.60;9.07;;;-0.20;99.90;;;;;;4764721;30;20052;-80
2023/04/05 04:19:56;;;;;;;11.73;7.88;;;-0.20;99.90;;;;;;4752435;30;20116;-80
2023/04/05 04:22:25;;;;;;;15.05;8.25;;;-0.30;99.90;;;;;;4753828;30;20052;-80
2023/04/05 04:24:54;;;;;;;15.15;8.43;;;-0.30;99.90;;;;;;4752522;30;20039;-80
2023/04/05 04:27:20;;;;;;;11.30;5.97;;;-0.30;99.90;;;;;;4750885;30;20074;-81
2023/04/05 04:29:48;;;;;;;11.55;6.70;;;-0.10;99.90;;;;;;4766968;30;20076;-80
2023/04/05 04:32:15;;;;;;;13.13;6.45;;;-0.40;99.90;;;;;;4763878;30;20130;-81
2023/04/05 04:34:44;;;;;;;11.25;7.35;;;-0.40;99.90;;;;;;4748224;30;20049;-79
2023/04/05 04:37:16;;;;;;;17.75;8.82;;;-0.50;99.90;;;;;;4765253;30;20044;-78
2023/04/05 04:39:45;;;;;;;16.15;8.30;;;-0.40;99.90;;;;;;4747365;30;20076;-81
2023/04/05 04:42:10;;;;;;;12.32;7.80;;;-0.50;99.90;;;;;;4768965;30;20048;-80
2023/04/05 04:44:36;;;;;;;13.02;6.85;;;-0.50;99.90;;;;;;4765675;30;20109;-79
2023/04/05 04:47:02;;;;;;;12.60;6.65;;;-0.50;99.90;;;;;;4754878;30;20059;-79
2023/04/05 04:49:29;;;;;;;14.48;6.95;;;-0.50;99.90;;;;;;4756681;30;20095;-79
2023/04/05 04:51:57;;;;;;;9.38;7.65;;;-0.50;99.90;;;;;;4758172;30;20100;-79
2023/04/05 04:54:22;;;;;;;12.98;7.07;;;-0.60;99.90;;;;;;4770580;30;20052;-80
2023/04/05 04:56:48;;;;;;;10.38;7.25;;;-0.20;99.90;;;;;;4751792;30;20542;-81
2023/04/05 04:59:14;;;;;;;11.15;6.30;;;-0.50;99.90;;;;;;4751432;30;20112;-82
2023/04/05 05:01:43;;;;;;;10.80;6.95;;;0.20;99.90;;;;;;4746687;30;20048;-81
2023/04/05 05:04:09;;;;;;;9.77;6.70;;;-0.50;99.90;;;;;;4753139;30;20052;-81
2023/04/05 05:06:34;;;;;;;10.18;6.90;;;-0.30;99.90;;;;;;4751175;30;20048;-81
2023/04/05 05:09:00;;;;;;;11.55;6.93;;;-0.60;99.90;;;;;;4753358;30;20043;-80
2023/04/05 05:11:27;;;;;;;11.82;7.65;;;-0.60;99.90;;;;;;4751355;30;20040;-80
2023/04/05 05:13:53;;;;;;;10.98;6.10;;;-0.60;99.90;;;;;;4749481;30;20862;-78
2023/04/05 05:16:20;;;;;;;9.57;6.95;;;-0.50;99.90;;;;;;4757704;30;20123;-78
2023/04/05 05:18:47;;;;;;;11.70;7.53;;;-0.30;99.90;;;;;;4751304;30;20044;-79
2023/04/05 05:21:13;;;;;;;9.85;6.28;;;-0.10;99.90;;;;;;4764844;30;20507;-80
2023/04/05 05:23:38;;;;;;;11.25;7.85;;;-0.10;99.90;;;;;;4764576;30;20083;-79
2023/04/05 05:26:04;;;;;;;10.63;6.75;;;0.00;99.90;;;;;;4768923;30;20131;-79
2023/04/05 05:28:29;;;;;;;11.60;7.50;;;0.20;99.90;;;;;;4753937;30;20097;-79
2023/04/05 05:30:55;;;;;;;11.68;6.57;;;0.40;99.90;;;;;;4751421;30;20109;-79
2023/04/05 05:33:21;;;;;;;9.88;5.80;;;1.00;99.90;;;;;;4761280;30;20528;-79
2023/04/05 05:35:50;;;;;;;10.48;5.10;;;1.80;99.90;;;;;;4753834;30;20039;-80
2023/04/05 05:38:16;;;;;;;9.25;5.80;;;2.70;99.90;;;;;;4754676;30;20039;-80
2023/04/05 05:40:42;;;;;;;10.35;6.95;;;3.50;99.90;;;;;;4753393;30;20048;-79
2023/04/05 05:43:09;;;;;;;9.30;6.10;;;4.10;99.90;;;;;;4754268;30;20695;-80
2023/04/05 05:45:35;;;;;;;11.82;6.63;;;4.60;99.90;;;;;;4769628;30;20123;-80
2023/04/05 05:48:00;;;;;;;8.77;6.88;;;4.80;99.90;;;;;;4753727;30;20114;-79
2023/04/05 05:50:26;;;;;;;9.02;6.28;;;5.10;99.90;;;;;;4754672;30;20443;-79
2023/04/05 05:52:52;;;;;;;9.70;7.45;;;5.20;99.90;;;;;;4771942;30;20051;-80
2023/04/05 05:55:18;;;;;;;9.55;5.90;;;5.30;99.90;;;;;;4755232;30;20044;-80
2023/04/05 05:57:44;;;;;;;11.23;7.00;;;5.50;99.90;;;;;;4771381;30;20046;-81
2023/04/05 06:00:10;;;;;;;9.13;6.63;;;6.30;99.90;;;;;;4755439;30;20123;-81
2023/04/05 06:02:35;;;;;;;11.05;6.93;;;7.30;99.90;;;;;;4766273;30;20039;-78
2023/04/05 06:05:01;;;;;;;11.25;6.68;;;8.60;99.90;;;;;;4752670;30;20426;-78
2023/04/05 06:07:27;;;;;;;8.18;5.95;;;9.50;99.90;;;;;;4733740;30;20039;-81
2023/04/05 06:09:52;;;;;;;8.48;6.10;;;10.50;99.90;;;;;;4749802;30;20039;-78
2023/04/05 06:12:20;;;;;;;7.40;5.20;;;11.20;99.90;;;;;;4765064;30;20043;-79
2023/04/05 06:14:46;;;;;;;10.68;6.68;;;12.00;99.90;;;;;;4748573;30;20044;-80
2023/04/05 06:17:11;;;;;;;8.25;6.10;;;12.60;99.90;;;;;;4749583;30;20112;-79
2023/04/05 06:19:37;;;;;;;8.38;5.82;;;13.00;99.90;;;;;;4764433;30;20483;-79
2023/04/05 06:22:02;;;;;;;8.40;5.95;;;13.50;99.90;;;;;;4747572;30;20048;-79
2023/04/05 06:24:30;;;;;;;8.98;6.90;;;14.00;99.90;;;;;;4739316;30;20087;-78
2023/04/05 06:26:57;;;;;;;8.70;6.13;;;14.50;99.90;;;;;;4750773;30;20039;-80
2023/04/05 06:29:23;;;;;;;7.63;6.38;;;14.40;99.90;;;;;;4749927;30;20518;-79
2023/04/05 06:31:48;;;;;;;10.35;6.65;;;14.30;99.80;;;;;;4755839;30;20043;-79
2023/04/05 06:34:14;;;;;;;7.75;6.55;;;14.10;99.20;;;;;;4735278;30;20060;-80
2023/04/05 06:36:40;;;;;;;9.63;6.65;;;14.00;98.60;;;;;;4747846;30;20047;-79
2023/04/05 06:39:05;;;;;;;9.93;6.35;;;13.70;98.10;;;;;;4765569;30;20046;-77
2023/04/05 06:41:31;;;;;;;8.75;6.45;;;13.60;98.10;;;;;;4737442;30;20445;-77
2023/04/05 06:43:57;;;;;;;9.02;6.28;;;13.60;97.70;;;;;;4761255;30;20150;-77
2023/04/05 06:46:23;;;;;;;9.25;6.68;;;13.70;97.80;;;;;;4761576;30;20044;-76
2023/04/05 06:48:50;;;;;;;8.93;6.57;;;13.60;97.40;;;;;;4739729;30;20055;-77
2023/04/05 06:51:17;;;;;;;8.80;7.20;;;13.60;97.20;;;;;;4747517;30;20040;-76
2023/04/05 06:53:43;;;;;;;9.98;6.45;;;13.60;97.20;;;;;;4747993;30;20118;-78
2023/04/05 06:56:08;;;;;;;7.25;6.20;;;13.60;96.80;;;;;;4748142;30;20039;-77
2023/04/05 06:58:34;;;;;;;10.95;7.07;;;13.60;96.80;;;;;;4758659;30;20930;-77
2023/04/05 07:01:00;;;;;;;9.70;6.57;;;13.50;96.40;;;;;;4747826;30;20052;-77
2023/04/05 07:03:26;;;;;;;10.13;7.03;;;13.60;96.70;;;;;;4748116;30;20797;-77
2023/04/05 07:05:58;;;;;;;9.82;6.03;;;13.40;96.60;;;;;;4761851;30;20055;-77
2023/04/05 07:08:24;;;;;;;7.22;6.22;;;13.80;96.30;;;;;;4745698;30;20040;-77
2023/04/05 07:10:51;;;;;;;7.10;5.93;;;13.80;96.50;;;;;;4745912;30;20495;-76
2023/04/05 07:13:17;;;;;;;8.57;6.45;;;13.60;96.50;;;;;;4746406;30;20625;-76
2023/04/05 07:15:44;;;;;;;8.90;6.55;;;12.90;96.10;;;;;;4747883;30;20080;-76
2023/04/05 07:18:10;;;;;;;8.75;5.93;;;12.60;96.60;;;;;;4745760;30;20047;-77
2023/04/05 07:20:37;;;;;;;5.95;5.35;;;12.10;96.90;;;;;;4760563;30;20050;-77
2023/04/05 07:23:04;;;;;;;9.77;5.97;;;11.60;97.60;;;;;;4761624;30;20391;-77
2023/04/05 07:25:30;;;;;;;13.43;7.90;;;11.20;97.80;;;;;;4759612;30;20587;-76
2023/04/05 07:27:56;;;;;;;7.82;6.97;;;10.90;98.10;;;;;;4745878;30;20062;-76
2023/04/05 07:30:21;;;;;;;9.18;6.82;;;10.30;98.10;;;;;;4746942;30;20048;-77
2023/04/05 07:32:47;;;;;;;9.90;7.38;;;9.80;98.40;;;;;;4747162;30;20070;-76
2023/04/05 07:35:13;;;;;;;10.32;8.35;;;9.60;99.40;;;;;;4752538;30;20058;-76
2023/04/05 07:37:38;;;;;;;12.77;7.63;;;9.40;99.40;;;;;;4747810;30;20125;-77
2023/04/05 07:40:05;;;;;;;10.98;8.65;;;9.20;99.90;;;;;;4761713;30;20505;-76
2023/04/05 07:42:30;;;;;;;8.65;6.95;;;9.10;99.90;;;;;;4762339;30;20040;-76
2023/04/05 07:44:57;;;;;;;12.75;8.10;;;9.10;99.90;;;;;;4747717;30;20073;-76
2023/04/05 07:47:22;;;;;;;9.75;6.40;;;9.00;99.90;;;;;;4759868;30;20074;-77
2023/04/05 07:49:48;;;;;;;11.75;6.78;;;9.10;99.90;;;;;;4756690;30;20138;-77
2023/04/05 07:52:14;;;;;;;12.70;6.78;;;9.00;99.90;;;;;;4756393;30;20082;-77
2023/04/05 07:54:42;;;;;;;10.55;5.72;;;9.10;99.90;;;;;;4745510;30;20054;-76
2023/04/05 07:57:20;;;;;;;10.45;6.80;;;9.10;99.90;;;;;;4750619;30;20055;-77
2023/04/05 07:59:47;;;;;;;8.15;6.20;;;9.20;99.90;;;;;;4752973;30;20690;-77
2023/04/05 08:02:12;;;;;;;7.93;5.75;;;9.20;99.90;;;;;;4745978;30;20188;-77
2023/04/05 08:04:38;;;;;;;10.18;5.93;;;9.30;99.90;;;;;;4752742;30;20089;-77
2023/04/05 08:07:04;;;;;;;8.75;6.78;;;9.30;99.90;;;;;;4754452;30;20093;-77
2023/04/05 08:09:30;;;;;;;7.10;6.07;;;9.20;99.90;;;;;;4730495;30;20135;-77
2023/04/05 08:11:56;;;;;;;8.15;5.82;;;9.20;99.90;;;;;;4744537;30;20105;-77
2023/04/05 08:14:22;;;;;;;7.45;5.63;;;9.40;99.90;;;;;;4763502;30;20854;-77
2023/04/05 08:16:49;;;;;;;8.80;6.15;;;9.40;99.90;;;;;;4760433;30;20090;-77
2023/04/05 08:19:15;;;;;;;7.32;6.00;;;9.60;99.90;;;;;;4760187;30;20569;-77
2023/04/05 08:21:40;;;;;;;8.57;5.55;;;9.90;99.90;;;;;;4745243;30;20105;-77
2023/04/05 08:24:06;;;;;;;9.23;5.38;;;10.10;99.90;;;;;;4759358;30;20112;-77
2023/04/05 08:26:32;;;;;;;13.73;5.43;;;10.30;99.90;;;;;;4762501;30;20117;-77
2023/04/05 08:28:57;;;;;;;8.93;6.00;;;10.40;99.90;;;;;;4751677;30;20052;-76
2023/04/05 08:31:23;;;;;;;8.07;5.65;;;10.60;99.90;;;;;;4761537;30;20075;-76
2023/04/05 08:33:48;;;;;;;6.35;4.65;;;10.70;99.90;;;;;;4758989;30;20081;-76
2023/04/05 08:36:14;;;;;;;5.95;5.22;;;10.80;99.90;;;;;;4760480;30;20562;-76
2023/04/05 08:38:39;;;;;;;7.43;4.22;;;10.80;99.80;;;;;;4760728;30;20051;-76
2023/04/05 08:41:29;;;;;;;13.27;5.80;;;11.00;99.80;;;;;;4760674;30;20051;-76
2023/04/05 08:43:57;;;;;;;5.90;4.75;;;11.30;99.90;;;;;;4757554;30;20376;-77
2023/04/05 08:46:23;;;;;;;6.38;4.63;;;11.60;99.30;;;;;;4746797;30;20074;-77
2023/04/05 08:48:49;;;;;;;9.07;4.93;;;11.90;98.80;;;;;;4745909;30;20062;-77
2023/04/05 08:51:22;;;;;;;7.75;5.05;;;11.60;97.40;;;;;;4748148;30;20044;-77
2023/04/05 08:53:48;;;;;;;6.68;4.95;;;11.00;97.70;;;;;;4748703;30;20047;-77
2023/04/05 08:56:17;;;;;;;5.95;4.57;;;11.10;98.00;;;;;;4744897;30;20047;-76
2023/04/05 08:58:52;;;;;;;6.53;4.55;;;11.40;97.40;;;;;;4752374;30;20048;-77
2023/04/05 09:01:18;;;;;;;8.32;4.57;;;11.40;97.30;;;;;;4763681;30;20129;-76
2023/04/05 09:03:44;;;;;;;6.82;4.85;;;11.70;97.90;;;;;;4765788;30;20051;-76
2023/04/05 09:06:12;;;;;;;5.50;4.72;;;11.30;96.60;;;;;;4750359;30;20047;-77
2023/04/05 09:08:38;;;;;;;7.65;4.20;;;11.30;97.00;;;;;;4744274;30;20047;-77
2023/04/05 09:11:04;;;;;;;6.53;3.58;;;11.40;96.40;;;;;;4764136;30;20055;-77
2023/04/05 09:13:30;;;;;;;5.25;3.58;;;11.10;97.00;;;;;;4766880;30;20057;-77
2023/04/05 09:15:56;;;;;;;5.63;3.53;;;11.10;96.90;;;;;;4767164;30;21199;-77
2023/04/05 09:18:22;;;;;;;10.25;3.97;;;11.50;96.80;;;;;;4761051;30;20550;-76
2023/04/05 09:20:48;;;;;;;9.60;3.63;;;11.50;96.80;;;;;;4743455;30;20104;-76
2023/04/05 09:23:13;;;;;;;5.75;3.72;;;11.10;95.90;;;;;;4758307;30;20052;-77
2023/04/05 09:25:41;;;;;;;7.82;4.05;;;11.10;95.50;;;;;;4763702;30;20125;-77
2023/04/05 09:28:08;;;;;;;6.30;4.50;;;10.90;95.60;;;;;;4748281;30;20104;-77
2023/04/05 09:30:35;;;;;;;5.97;3.05;;;11.10;96.40;;;;;;4758270;30;20075;-76
2023/04/05 09:33:05;;;;;;;8.80;3.83;;;11.50;96.20;;;;;;4744717;30;21136;-77
2023/04/05 09:35:32;;;;;;;5.68;2.95;;;11.60;95.30;;;;;;4740448;30;20144;-76
2023/04/05 09:38:00;;;;;;;6.32;3.47;;;11.20;95.60;;;;;;4743944;30;20046;-77
2023/04/05 09:40:43;;;;;;;4.32;2.70;;;11.60;96.10;;;;;;4744234;30;20048;-77
2023/04/05 09:43:11;;;;;;;3.63;2.85;;;11.90;95.20;;;;;;4741981;30;20044;-77
2023/04/05 09:45:41;;;;;;;5.43;2.67;;;12.20;94.60;;;;;;4757823;30;20051;-77
2023/04/05 09:48:08;;;;;;;5.40;3.10;;;12.20;94.10;;;;;;4754722;30;20075;-77
2023/04/05 09:50:35;;;;;;;7.00;3.25;;;11.60;93.90;;;;;;4742721;30;20128;-77
2023/04/05 09:53:15;;;;;;;4.50;3.03;;;11.10;93.80;;;;;;4742958;30;20346;-76
2023/04/05 09:55:42;;;;;;;6.05;3.35;;;10.70;94.20;;;;;;4740422;30;20420;-76
2023/04/05 09:58:31;;;;;;;7.20;2.90;;;10.90;94.90;;;;;;4748939;30;20047;-77
2023/04/05 10:00:57;;;;;;;6.68;2.70;;;11.20;94.70;;;;;;4746756;30;20040;-76
2023/04/05 10:03:25;;;;;;;4.22;2.92;;;11.50;93.70;;;;;;4757481;30;20128;-78
2023/04/05 10:06:00;;;;;;;6.43;2.83;;;11.70;94.20;;;;;;4745909;30;20047;-77
2023/04/05 10:08:26;;;;;;;7.10;2.92;;;11.80;93.50;;;;;;4749697;30;20404;-77
2023/04/05 10:10:55;;;;;;;5.07;3.10;;;12.00;94.00;;;;;;4748164;30;20150;-77
2023/04/05 10:13:21;;;;;;;6.28;3.05;;;11.70;93.10;;;;;;4761844;30;20075;-76
2023/04/05 10:15:50;;;;;;;4.10;2.83;;;11.50;93.40;;;;;;4744668;30;20063;-77
2023/04/05 10:18:26;;;;;;;4.97;2.95;;;11.40;94.10;;;;;;4744139;30;20058;-77
2023/04/05 10:20:53;;;;;;;5.90;3.25;;;11.70;94.40;;;;;;4759151;30;20046;-77
2023/04/05 10:23:26;;;;;;;6.43;3.10;;;11.70;94.20;;;;;;4734670;30;21014;-77
2023/04/05 10:25:59;;;;;;;6.50;3.95;;;11.90;94.10;;;;;;4761783;30;20062;-78
2023/04/05 10:28:36;;;;;;;4.65;3.78;;;11.80;92.50;;;;;;4744586;30;20048;-77
2023/04/05 10:31:17;;;;;;;4.07;3.10;;;12.00;93.50;;;;;;4748582;30;20054;-76
2023/04/05 10:33:45;;;;;;;4.38;2.90;;;12.30;91.90;;;;;;4749124;30;20059;-77
2023/04/05 10:36:17;;;;;;;5.47;3.30;;;12.60;93.20;;;;;;4742495;30;20157;-76
2023/04/05 10:39:03;;;;;;;7.70;3.90;;;12.70;92.10;;;;;;4763198;30;20052;-76
2023/04/05 10:41:35;;;;;;;5.13;3.72;;;12.20;92.50;;;;;;4743542;30;20055;-75
2023/04/05 10:44:03;;;;;;;7.05;3.35;;;11.90;92.50;;;;;;4731993;30;20059;-75
2023/04/05 10:46:30;;;;;;;5.95;3.38;;;12.10;92.70;;;;;;4762483;30;20156;-76
2023/04/05 10:49:06;;;;;;;3.97;2.80;;;12.20;92.10;;;;;;4764206;30;20047;-76
2023/04/05 10:51:33;;;;;;;5.22;3.72;;;11.50;91.70;;;;;;4743307;30;20142;-76
2023/04/05 10:53:59;;;;;;;4.47;3.60;;;11.60;92.40;;;;;;4738816;30;20127;-76
2023/04/05 10:56:25;;;;;;;5.13;3.45;;;11.10;93.10;;;;;;4747072;30;20047;-76
2023/04/05 10:58:52;;;;;;;4.68;3.17;;;11.50;93.40;;;;;;4745467;30;20051;-76
2023/04/05 11:01:20;;;;;;;3.95;2.78;;;11.80;91.90;;;;;;4763183;30;20526;-76
2023/04/05 11:03:47;;;;;;;5.72;3.00;;;11.70;92.10;;;;;;4744768;30;20078;-77
2023/04/05 11:06:28;;;;;;;6.85;3.65;;;11.90;92.50;;;;;;4763896;30;20051;-75
2023/04/05 11:09:07;;;;;;;4.82;3.22;;;11.50;92.50;;;;;;4760636;30;20055;-76
2023/04/05 11:11:41;;;;;;;5.07;3.60;;;11.40;92.40;;;;;;4761453;30;20078;-76
2023/04/05 11:14:20;;;;;;;4.32;3.58;;;11.20;92.70;;;;;;4749443;30;20463;-76
2023/04/05 11:16:48;;;;;;;5.18;3.30;;;11.00;93.30;;;;;;4748028;30;20511;-75
2023/04/05 11:19:16;;;;;;;5.80;3.35;;;10.90;92.80;;;;;;4761678;30;20044;-76
2023/04/05 11:21:43;;;;;;;5.10;3.22;;;10.90;94.20;;;;;;4761492;30;20130;-76
2023/04/05 11:24:14;;;;;;;6.82;3.90;;;10.90;92.70;;;;;;4746171;30;20056;-76
2023/04/05 11:26:39;;;;;;;6.78;3.28;;;10.80;92.20;;;;;;4746260;30;20466;-75
2023/04/05 11:29:05;;;;;;;3.67;2.80;;;11.00;93.50;;;;;;4762508;30;20054;-76
2023/04/05 11:31:31;;;;;;;4.53;2.67;;;11.30;93.60;;;;;;4746553;30;20044;-75
2023/04/05 11:34:09;;;;;;;5.97;3.00;;;11.70;92.80;;;;;;4761641;30;20503;-75
2023/04/05 11:36:44;;;;;;;5.63;2.80;;;11.90;91.30;;;;;;4762525;30;20553;-76
2023/04/05 11:39:22;;;;;;;4.32;2.90;;;11.70;91.30;;;;;;4748776;30;20046;-76
2023/04/05 11:42:00;;;;;;;4.40;2.95;;;11.60;90.80;;;;;;4761032;30;20065;-76
2023/04/05 11:44:27;;;;;;;6.03;3.30;;;11.40;91.10;;;;;;4747958;30;20070;-76
2023/04/05 11:46:54;;;;;;;3.58;3.05;;;11.30;90.00;;;;;;4760601;30;20504;-76
2023/04/05 11:49:23;;;;;;;3.80;2.90;;;11.20;90.60;;;;;;4746666;30;20052;-75
2023/04/05 11:51:51;;;;;;;5.15;3.15;;;11.00;90.80;;;;;;4746436;30;20047;-76
2023/04/05 11:54:32;;;;;;;2.95;2.55;;;10.80;92.70;;;;;;4746759;30;20079;-76
2023/04/05 11:56:58;;;;;;;5.15;3.13;;;10.70;91.20;;;;;;4760600;30;20071;-76
2023/04/05 11:59:32;;;;;;;7.88;3.92;;;10.50;91.20;;;;;;4744385;30;20086;-76
2023/04/05 12:02:03;;;;;;;4.47;2.95;;;10.60;91.60;;;;;;4746330;30;20047;-76
2023/04/05 12:04:28;;;;;;;14.20;3.40;;;10.60;91.50;;;;;;4745665;30;20478;-76
2023/04/05 12:07:17;;;;;;;5.25;3.20;;;10.70;91.30;;;;;;4763854;30;20130;-76
2023/04/05 12:10:00;;;;;;;5.15;3.30;;;10.80;92.00;;;;;;4746904;30;20435;-76
2023/04/05 12:12:26;;;;;;;6.57;3.10;;;10.90;91.70;;;;;;4745734;30;20093;-76
2023/04/05 12:14:58;;;;;;;5.50;3.30;;;10.70;90.50;;;;;;4746987;30;20052;-76
2023/04/05 12:17:53;;;;;;;4.43;2.90;;;10.70;91.50;;;;;;4761292;30;20044;-75
2023/04/05 12:20:22;;;;;;;4.55;2.97;;;10.60;90.40;;;;;;4747651;30;20052;-75
2023/04/05 12:22:51;;;;;;;3.65;2.60;;;10.80;90.90;;;;;;4761366;30;20050;-75
2023/04/05 12:25:17;;;;;;;3.88;2.90;;;11.10;90.90;;;;;;4752703;30;20104;-75
2023/04/05 12:27:43;;;;;;;4.30;2.85;;;11.40;91.60;;;;;;4751427;30;20100;-76
2023/04/05 12:30:09;;;;;;;4.32;2.88;;;11.50;91.20;;;;;;4749677;30;20040;-77
2023/04/05 12:32:43;;;;;;;5.07;3.25;;;11.20;90.70;;;;;;4751976;30;20047;-77
2023/04/05 12:35:16;;;;;;;4.50;2.88;;;10.80;90.80;;;;;;4764355;30;20044;-76
2023/04/05 12:37:42;;;;;;;5.28;3.08;;;10.90;90.80;;;;;;4750013;30;20047;-75
2023/04/05 12:40:09;;;;;;;3.75;3.28;;;10.90;90.80;;;;;;4767162;30;20036;-75
2023/04/05 12:42:36;;;;;;;4.82;2.95;;;11.20;90.60;;;;;;4765402;30;20044;-77
2023/04/05 12:45:04;;;;;;;4.85;3.05;;;11.20;90.50;;;;;;4748213;30;20142;-75
2023/04/05 12:47:33;;;;;;;5.38;2.60;;;11.50;91.20;;;;;;4767846;30;20051;-75
2023/04/05 12:50:15;;;;;;;5.45;3.20;;;11.80;90.00;;;;;;4764427;30;20134;-76
2023/04/05 12:52:52;;;;;;;3.97;2.78;;;12.00;91.50;;;;;;4762279;30;20414;-76